Airfield :
LOGIN :

Register | Disclaimer

   EN    FR    IT 

 










Legend :    VFR   Marginal VFR   IFR   Intensive IFR   Very Intensive IFR
Visi :
Ceiling :
>= 8 km
>= 3000ft
5 to 8 km
1000 to 3000 ft
1500m to 5 km
500 to 1000 ft
800 to 1500m
200 to 500 ft
< 800m
< 200 ft
Symbols :   Thunderstorms  Fog  Heavy snow  Heavy precipitations  Wind > 20 kt
SIGMETs :     Misc.  Thunderstorms  Icing  Turbulence  Mountain Waves  Volcanic Ashes







- Airport Elevation : 17 ft
- IATA code : CPH


EKCH - København - Kastrup (Copenhagen)

CURRENT METAR :
  • 161750Z 21004KT 6000 NSC 13/11 Q1019 NOSIG

EXPIRED METARs :
  • 161720Z 20003KT 7000 NSC 13/12 Q1019 NOSIG
  • 161650Z 15003KT 9000 NSC 13/12 Q1018 NOSIG
  • 161620Z 15003KT 8000 NSC 13/12 Q1018 NOSIG
  • 161550Z 16002KT CAVOK 14/11 Q1018 NOSIG
  • 161520Z 17003KT CAVOK 14/12 Q1018 NOSIG

TAF TAF EKCH
Valid from the 16 at 18:00 until the 17 at 18:00 UTC


161704Z 1618/1718 15005KT 9000 FEW015
BECMG 1621/1624 4000 BR
PROB40 1700/1704 VRB02KT 0200 FG VV001
BECMG 1704/1707 9999 NSW
No reported NOTAMs for that airfield.



MET'MAP, your aeronautical weather chart ! - Copyright ORBIFLY December 2007 - Disclaimer

ORBIFLY MET'MAP TEAM :

Programming & Development : Alexandra Zaïnal
Concept & Development : Baudouin d'Aumeries
Co-Development & Prog : Marc-Olivier Méhu
Technical & hardware support : Manuel Goepfert

Contact : metmap@orbifly.com




SOURCES & CREDITS :

   NOAA